Time;durP1;ratioP1;P1;durP2;ratioP2;P2;SDS_P1;SDS_P2;PMS_P1;PMS_P2;Temp;Humidity;BMP_temperature;BMP_pressure;BME280_temperature;BME280_humidity;BME280_pressure;Samples;Min_cycle;Max_cycle;Signal;HPM_P1;HPM_P2
2023/12/18 00:01:37;;;;;;;;;;;19.00;55.70;;;;;;7397680;19;1554;-62
2023/12/18 00:04:07;;;;;;;;;;;18.90;55.70;;;;;;7392300;19;2978;-62
2023/12/18 00:06:32;;;;;;;;;;;18.90;55.80;;;;;;7398154;19;2866;-62
2023/12/18 00:08:58;;;;;;;;;;;18.90;55.70;;;;;;7394637;19;1053;-61
2023/12/18 00:11:23;;;;;;;;;;;18.80;55.60;;;;;;7392452;19;3388;-62
2023/12/18 00:13:48;;;;;;;;;;;18.80;55.60;;;;;;7393434;19;2960;-62
2023/12/18 00:16:14;;;;;;;;;;;18.80;55.70;;;;;;7392119;19;1866;-63
2023/12/18 00:18:39;;;;;;;;;;;18.80;56.10;;;;;;7393546;19;4428;-62
2023/12/18 00:21:05;;;;;;;;;;;18.80;55.50;;;;;;7395927;19;2947;-60
2023/12/18 00:23:31;;;;;;;;;;;18.80;55.50;;;;;;7394407;19;807;-60
2023/12/18 00:25:56;;;;;;;;;;;18.70;55.50;;;;;;7391808;19;3005;-60
2023/12/18 00:28:22;;;;;;;;;;;18.70;55.50;;;;;;7397873;19;1630;-60
2023/12/18 00:30:47;;;;;;;;;;;18.70;55.60;;;;;;7394742;19;1542;-60
2023/12/18 00:33:13;;;;;;;;;;;18.70;55.60;;;;;;7393607;19;4009;-60
2023/12/18 00:35:38;;;;;;;;;;;18.70;55.70;;;;;;7392808;19;1838;-60
2023/12/18 00:38:04;;;;;;;;;;;18.70;55.60;;;;;;7398406;19;1558;-61
2023/12/18 00:40:30;;;;;;;;;;;18.70;55.70;;;;;;7391900;19;2707;-61
2023/12/18 00:42:56;;;;;;;;;;;18.70;55.80;;;;;;7398673;19;1689;-60
2023/12/18 00:45:22;;;;;;;;;;;18.70;55.80;;;;;;7395390;19;1664;-60
2023/12/18 00:47:47;;;;;;;;;;;18.70;55.70;;;;;;7392330;19;2894;-60
2023/12/18 00:50:12;;;;;;;;;;;18.70;55.70;;;;;;7395906;19;1675;-60
2023/12/18 00:52:38;;;;;;;;;;;18.60;55.70;;;;;;7393559;19;1168;-60
2023/12/18 00:55:04;;;;;;;;;;;18.60;55.90;;;;;;7392019;19;3995;-60
2023/12/18 00:57:30;;;;;;;;;;;18.60;55.70;;;;;;7392167;19;1483;-60
2023/12/18 00:59:55;;;;;;;;;;;18.60;55.90;;;;;;7391556;19;1336;-60
2023/12/18 01:02:20;;;;;;;;;;;18.50;55.70;;;;;;7395083;19;3124;-60
2023/12/18 01:04:46;;;;;;;;;;;18.50;55.70;;;;;;7392385;19;1574;-60
2023/12/18 01:07:11;;;;;;;;;;;18.50;55.70;;;;;;7397119;19;1450;-60
2023/12/18 01:09:37;;;;;;;;;;;18.50;55.60;;;;;;7392620;19;3115;-60
2023/12/18 01:12:02;;;;;;;;;;;18.50;55.70;;;;;;7395339;19;1519;-60
2023/12/18 01:14:28;;;;;;;;;;;18.50;55.90;;;;;;7394440;19;3270;-60
2023/12/18 01:16:54;;;;;;;;;;;18.50;55.80;;;;;;7397824;19;3447;-60
2023/12/18 01:19:20;;;;;;;;;;;18.50;55.90;;;;;;7401291;19;1485;-60
2023/12/18 01:21:45;;;;;;;;;;;18.50;56.00;;;;;;7402214;19;1494;-60
2023/12/18 01:24:11;;;;;;;;;;;18.50;56.00;;;;;;7398857;19;2751;-60
2023/12/18 01:26:36;;;;;;;;;;;18.40;55.80;;;;;;7400156;19;1450;-60
2023/12/18 01:29:02;;;;;;;;;;;18.40;55.70;;;;;;7401326;19;2975;-60
2023/12/18 01:31:27;;;;;;;;;;;18.40;55.80;;;;;;7398947;19;3396;-60
2023/12/18 01:33:53;;;;;;;;;;;18.40;55.90;;;;;;7399891;19;837;-60
2023/12/18 01:36:18;;;;;;;;;;;18.40;55.80;;;;;;7399826;19;1849;-60
2023/12/18 01:38:43;;;;;;;;;;;18.40;55.80;;;;;;7398338;19;3129;-60
2023/12/18 01:41:09;;;;;;;;;;;18.40;55.70;;;;;;7396733;19;844;-60
2023/12/18 01:43:34;;;;;;;;;;;18.40;55.80;;;;;;7400458;19;1675;-60
2023/12/18 01:46:00;;;;;;;;;;;18.30;55.80;;;;;;7399153;19;3346;-60
2023/12/18 01:48:26;;;;;;;;;;;18.30;55.80;;;;;;7397779;19;2350;-60
2023/12/18 01:50:52;;;;;;;;;;;18.30;55.60;;;;;;7400834;19;1684;-60
2023/12/18 01:53:17;;;;;;;;;;;18.30;55.70;;;;;;7401099;19;2729;-60
2023/12/18 01:55:43;;;;;;;;;;;18.30;55.80;;;;;;7394115;19;1865;-60
2023/12/18 01:58:08;;;;;;;;;;;18.30;55.70;;;;;;7397762;19;1668;-60
2023/12/18 02:00:33;;;;;;;;;;;18.30;55.70;;;;;;7395120;19;3083;-60
2023/12/18 02:02:59;;;;;;;;;;;18.30;55.60;;;;;;7400467;19;2159;-60
2023/12/18 02:05:24;;;;;;;;;;;18.20;55.70;;;;;;7398708;19;1455;-60
2023/12/18 02:07:50;;;;;;;;;;;18.20;55.70;;;;;;7400700;19;4061;-60
2023/12/18 02:10:15;;;;;;;;;;;18.20;55.80;;;;;;7396317;19;812;-60
2023/12/18 02:12:41;;;;;;;;;;;18.20;55.70;;;;;;7395390;19;3175;-60
2023/12/18 02:15:06;;;;;;;;;;;18.20;55.60;;;;;;7398694;19;2996;-60
2023/12/18 02:17:31;;;;;;;;;;;18.30;55.70;;;;;;7400094;19;1861;-60
2023/12/18 02:20:06;;;;;;;;;;;18.30;55.50;;;;;;7400400;19;1482;-60
2023/12/18 02:22:49;;;;;;;;;;;18.40;55.50;;;;;;7399261;19;3862;-60
2023/12/18 02:25:15;;;;;;;;;;;18.40;55.40;;;;;;7395588;19;2886;-61
2023/12/18 02:27:40;;;;;;;;;;;18.40;55.20;;;;;;7399755;19;4397;-60
2023/12/18 02:30:06;;;;;;;;;;;18.60;55.10;;;;;;7398709;19;2839;-60
2023/12/18 02:32:32;;;;;;;;;;;18.60;54.80;;;;;;7402275;19;1636;-60
2023/12/18 02:34:57;;;;;;;;;;;18.80;54.60;;;;;;7398057;19;3344;-60
2023/12/18 02:37:24;;;;;;;;;;;18.90;54.20;;;;;;7401289;19;2355;-60
2023/12/18 02:39:49;;;;;;;;;;;19.00;54.10;;;;;;7396119;19;883;-60
2023/12/18 02:42:15;;;;;;;;;;;19.10;54.00;;;;;;7397590;19;4473;-60
2023/12/18 02:44:40;;;;;;;;;;;19.20;53.80;;;;;;7401556;19;3357;-60
2023/12/18 02:47:06;;;;;;;;;;;19.20;53.60;;;;;;7400797;19;1540;-60
2023/12/18 02:49:31;;;;;;;;;;;19.30;53.70;;;;;;7392436;19;4558;-60
2023/12/18 02:51:57;;;;;;;;;;;19.30;54.10;;;;;;7400736;19;3050;-60
2023/12/18 02:54:22;;;;;;;;;;;19.40;53.50;;;;;;7396082;19;1857;-60
2023/12/18 02:56:47;;;;;;;;;;;19.30;53.40;;;;;;7395839;19;3075;-60
2023/12/18 02:59:13;;;;;;;;;;;19.40;53.40;;;;;;7395374;19;3344;-60
2023/12/18 03:01:38;;;;;;;;;;;19.40;53.50;;;;;;7398611;19;1545;-60
2023/12/18 03:04:04;;;;;;;;;;;19.40;53.40;;;;;;7397514;19;3138;-60
2023/12/18 03:06:29;;;;;;;;;;;19.30;53.30;;;;;;7398464;19;3282;-60
2023/12/18 03:08:54;;;;;;;;;;;19.30;53.40;;;;;;7396825;19;840;-60
2023/12/18 03:11:20;;;;;;;;;;;19.30;53.30;;;;;;7397189;19;2703;-60
2023/12/18 03:13:45;;;;;;;;;;;19.30;53.40;;;;;;7400117;19;3019;-60
2023/12/18 03:16:11;;;;;;;;;;;19.30;53.50;;;;;;7396211;19;1837;-60
2023/12/18 03:18:37;;;;;;;;;;;19.30;53.50;;;;;;7395820;19;4049;-60
2023/12/18 03:21:02;;;;;;;;;;;19.20;53.50;;;;;;7400261;19;2856;-60
2023/12/18 03:23:28;;;;;;;;;;;19.20;53.50;;;;;;7395650;19;1592;-60
2023/12/18 03:25:53;;;;;;;;;;;19.20;53.50;;;;;;7396023;19;3243;-60
2023/12/18 03:28:18;;;;;;;;;;;19.20;53.80;;;;;;7400303;19;2920;-63
2023/12/18 03:30:44;;;;;;;;;;;19.20;53.70;;;;;;7394611;19;1590;-60
2023/12/18 03:33:10;;;;;;;;;;;19.10;53.60;;;;;;7394222;19;3949;-60
2023/12/18 03:35:35;;;;;;;;;;;19.10;53.80;;;;;;7397892;19;3192;-60
2023/12/18 03:38:01;;;;;;;;;;;19.10;53.80;;;;;;7394686;19;2840;-60
2023/12/18 03:40:26;;;;;;;;;;;19.00;53.80;;;;;;7392782;19;3586;-60
2023/12/18 03:42:51;;;;;;;;;;;19.00;53.90;;;;;;7400099;19;2972;-60
2023/12/18 03:45:17;;;;;;;;;;;19.00;53.90;;;;;;7393559;19;1254;-60
2023/12/18 03:47:42;;;;;;;;;;;19.00;54.10;;;;;;7395540;19;2967;-60
2023/12/18 03:50:08;;;;;;;;;;;18.90;54.00;;;;;;7398927;19;3393;-60
2023/12/18 03:52:33;;;;;;;;;;;18.90;54.10;;;;;;7394492;19;1894;-60
2023/12/18 03:54:59;;;;;;;;;;;18.90;54.10;;;;;;7392871;19;3614;-60
2023/12/18 03:57:24;;;;;;;;;;;18.80;54.00;;;;;;7400092;19;3659;-60
2023/12/18 03:59:50;;;;;;;;;;;18.90;54.10;;;;;;7393195;19;2615;-60
2023/12/18 04:02:15;;;;;;;;;;;18.90;54.10;;;;;;7396584;19;3980;-60
2023/12/18 04:04:41;;;;;;;;;;;18.90;54.10;;;;;;7398340;19;1381;-61
2023/12/18 04:07:06;;;;;;;;;;;18.90;54.10;;;;;;7395466;19;3526;-60
2023/12/18 04:09:32;;;;;;;;;;;19.00;54.10;;;;;;7392701;19;3670;-60
2023/12/18 04:11:57;;;;;;;;;;;19.00;54.00;;;;;;7399398;19;1356;-61
2023/12/18 04:14:22;;;;;;;;;;;19.00;54.10;;;;;;7396858;19;1842;-61
2023/12/18 04:16:48;;;;;;;;;;;19.00;53.90;;;;;;7394324;19;3087;-61
2023/12/18 04:19:13;;;;;;;;;;;19.10;53.90;;;;;;7395758;19;1846;-61
2023/12/18 04:21:39;;;;;;;;;;;19.10;54.00;;;;;;7392665;19;1406;-61
2023/12/18 04:24:04;;;;;;;;;;;19.10;53.90;;;;;;7393715;19;2927;-61
2023/12/18 04:26:30;;;;;;;;;;;19.00;53.80;;;;;;7391791;19;1026;-61
2023/12/18 04:28:55;;;;;;;;;;;19.10;53.70;;;;;;7392451;19;911;-61
2023/12/18 04:31:20;;;;;;;;;;;19.10;53.80;;;;;;7394396;19;3212;-61
2023/12/18 04:33:46;;;;;;;;;;;19.10;53.70;;;;;;7395550;19;1486;-61
2023/12/18 04:36:11;;;;;;;;;;;19.10;53.60;;;;;;7395384;19;1854;-61
2023/12/18 04:38:37;;;;;;;;;;;19.10;53.60;;;;;;7393208;19;2945;-61
2023/12/18 04:41:02;;;;;;;;;;;19.10;53.60;;;;;;7396094;19;1666;-61
2023/12/18 04:43:28;;;;;;;;;;;19.10;53.60;;;;;;7393757;19;903;-60
2023/12/18 04:45:53;;;;;;;;;;;19.10;53.60;;;;;;7391525;19;2880;-61
2023/12/18 04:48:19;;;;;;;;;;;19.00;53.40;;;;;;7394146;19;1471;-60
2023/12/18 04:50:44;;;;;;;;;;;19.10;53.60;;;;;;7401082;19;1725;-61
2023/12/18 04:53:10;;;;;;;;;;;19.10;53.60;;;;;;7400100;19;2958;-62
2023/12/18 04:55:35;;;;;;;;;;;19.00;53.70;;;;;;7399415;19;1846;-62
2023/12/18 04:58:01;;;;;;;;;;;19.10;53.80;;;;;;7403927;19;1453;-61
2023/12/18 05:00:26;;;;;;;;;;;19.00;53.70;;;;;;7394137;19;3030;-60
2023/12/18 05:02:52;;;;;;;;;;;19.00;53.70;;;;;;7401913;19;2967;-61
2023/12/18 05:05:17;;;;;;;;;;;19.00;53.60;;;;;;7404058;19;1806;-60
2023/12/18 05:07:43;;;;;;;;;;;19.00;53.70;;;;;;7400767;19;3151;-61
2023/12/18 05:10:08;;;;;;;;;;;19.00;54.50;;;;;;7403063;19;1512;-61
2023/12/18 05:12:34;;;;;;;;;;;19.00;53.90;;;;;;7400608;19;882;-62
2023/12/18 05:14:59;;;;;;;;;;;19.00;53.90;;;;;;7400080;19;3852;-61
2023/12/18 05:17:24;;;;;;;;;;;18.90;53.80;;;;;;7402609;19;1753;-60
2023/12/18 05:19:50;;;;;;;;;;;18.90;54.50;;;;;;7403354;19;1668;-61
2023/12/18 05:22:15;;;;;;;;;;;18.90;53.80;;;;;;7400197;19;5564;-61
2023/12/18 05:24:41;;;;;;;;;;;19.00;54.10;;;;;;7401598;19;1518;-60
2023/12/18 05:27:06;;;;;;;;;;;19.00;54.00;;;;;;7399681;19;1033;-61
2023/12/18 05:29:31;;;;;;;;;;;19.00;54.10;;;;;;7399288;19;3227;-61
2023/12/18 05:31:57;;;;;;;;;;;18.90;53.90;;;;;;7401655;19;1456;-60
2023/12/18 05:34:22;;;;;;;;;;;18.90;54.00;;;;;;7403209;19;1893;-61
2023/12/18 05:36:48;;;;;;;;;;;18.90;54.00;;;;;;7399934;19;3838;-61
2023/12/18 05:39:13;;;;;;;;;;;18.90;54.00;;;;;;7399630;19;2884;-62
2023/12/18 05:41:39;;;;;;;;;;;18.90;54.00;;;;;;7398013;19;982;-61
2023/12/18 05:44:04;;;;;;;;;;;18.90;54.00;;;;;;7399993;19;2782;-61
2023/12/18 05:46:29;;;;;;;;;;;18.90;54.00;;;;;;7399802;19;2078;-61
2023/12/18 05:48:55;;;;;;;;;;;18.90;54.00;;;;;;7401223;19;1448;-61
2023/12/18 05:51:20;;;;;;;;;;;19.00;54.00;;;;;;7400503;19;2958;-60
2023/12/18 05:53:46;;;;;;;;;;;19.00;54.10;;;;;;7401410;19;1575;-61
2023/12/18 05:56:11;;;;;;;;;;;18.90;54.00;;;;;;7395674;19;1844;-60
2023/12/18 05:58:37;;;;;;;;;;;19.00;54.00;;;;;;7397373;19;3088;-61
2023/12/18 06:01:02;;;;;;;;;;;18.90;54.00;;;;;;7398784;19;1635;-60
2023/12/18 06:03:28;;;;;;;;;;;19.00;54.10;;;;;;7400731;19;1948;-61
2023/12/18 06:05:53;;;;;;;;;;;19.00;54.00;;;;;;7396999;19;2788;-61
2023/12/18 06:08:18;;;;;;;;;;;19.00;54.00;;;;;;7399375;19;1456;-61
2023/12/18 06:10:44;;;;;;;;;;;18.90;53.90;;;;;;7397580;19;1715;-60
2023/12/18 06:13:09;;;;;;;;;;;18.90;54.00;;;;;;7398764;19;2599;-61
2023/12/18 06:15:35;;;;;;;;;;;18.90;54.00;;;;;;7397120;19;1854;-60
2023/12/18 06:18:00;;;;;;;;;;;19.00;54.10;;;;;;7400776;19;1561;-61
2023/12/18 06:20:26;;;;;;;;;;;19.00;54.10;;;;;;7397905;19;2842;-61
2023/12/18 06:22:51;;;;;;;;;;;19.00;54.10;;;;;;7397856;19;824;-61
2023/12/18 06:25:16;;;;;;;;;;;19.00;54.00;;;;;;7397119;19;1758;-61
2023/12/18 06:27:44;;;;;;;;;;;19.00;54.00;;;;;;7398160;19;3536;-61
2023/12/18 06:30:09;;;;;;;;;;;19.00;54.00;;;;;;7397502;19;1587;-61
2023/12/18 06:32:35;;;;;;;;;;;19.00;54.00;;;;;;7400065;19;1606;-61
2023/12/18 06:35:00;;;;;;;;;;;19.00;54.10;;;;;;7396992;19;3647;-61
2023/12/18 06:37:26;;;;;;;;;;;18.90;54.10;;;;;;7401244;19;1541;-61
2023/12/18 06:39:51;;;;;;;;;;;18.90;54.00;;;;;;7397942;19;1624;-61
2023/12/18 06:42:16;;;;;;;;;;;18.90;54.10;;;;;;7397154;19;3184;-61
2023/12/18 06:44:42;;;;;;;;;;;18.90;54.00;;;;;;7398263;19;1732;-61
2023/12/18 06:47:07;;;;;;;;;;;18.90;54.10;;;;;;7401104;19;1619;-60
2023/12/18 06:49:33;;;;;;;;;;;18.90;54.00;;;;;;7397526;19;3681;-60
2023/12/18 06:51:58;;;;;;;;;;;18.90;54.10;;;;;;7400931;19;1531;-61
2023/12/18 06:54:26;;;;;;;;;;;18.90;54.10;;;;;;7395837;19;828;-61
2023/12/18 06:56:51;;;;;;;;;;;18.90;54.00;;;;;;7398138;19;4019;-60
2023/12/18 06:59:16;;;;;;;;;;;18.90;54.10;;;;;;7396895;19;4475;-61
2023/12/18 07:01:42;;;;;;;;;;;18.90;54.00;;;;;;7394756;19;2942;-60
2023/12/18 07:04:07;;;;;;;;;;;18.90;54.00;;;;;;7397935;19;4363;-60
2023/12/18 07:06:33;;;;;;;;;;;18.90;54.10;;;;;;7398400;19;1482;-60
2023/12/18 07:08:59;;;;;;;;;;;18.90;54.10;;;;;;7395568;19;863;-61
2023/12/18 07:11:24;;;;;;;;;;;18.90;54.00;;;;;;7395458;19;4474;-61
2023/12/18 07:13:51;;;;;;;;;;;18.90;54.00;;;;;;7396790;19;1604;-61
2023/12/18 07:16:20;;;;;;;;;;;18.90;54.00;;;;;;7395832;19;1858;-61
2023/12/18 07:18:45;;;;;;;;;;;18.90;54.00;;;;;;7396963;19;2885;-61
2023/12/18 07:21:11;;;;;;;;;;;18.90;53.90;;;;;;7398055;19;1502;-60
2023/12/18 07:23:36;;;;;;;;;;;19.00;54.00;;;;;;7395625;19;904;-61
2023/12/18 07:26:03;;;;;;;;;;;19.00;53.70;;;;;;7396454;19;3967;-60
2023/12/18 07:28:28;;;;;;;;;;;19.10;53.50;;;;;;7396076;19;1510;-61
2023/12/18 07:30:53;;;;;;;;;;;19.10;53.30;;;;;;7397904;19;1544;-61
2023/12/18 07:33:19;;;;;;;;;;;19.20;53.20;;;;;;7397530;19;3978;-61
2023/12/18 07:35:53;;;;;;;;;;;19.20;53.20;;;;;;7430429;19;1495;-60
2023/12/18 07:38:18;;;;;;;;;;;19.20;53.20;;;;;;7431214;19;3632;-60
2023/12/18 07:40:43;;;;;;;;;;;19.20;53.30;;;;;;7432178;19;3034;-62
2023/12/18 07:43:09;;;;;;;;;;;19.20;53.30;;;;;;7430271;19;1218;-60
2023/12/18 07:45:34;;;;;;;;;;;19.20;53.10;;;;;;7428356;19;4155;-60
2023/12/18 07:48:00;;;;;;;;;;;19.20;53.00;;;;;;7433399;19;3326;-60
2023/12/18 07:50:25;;;;;;;;;;;19.30;53.00;;;;;;7429400;19;4814;-60
2023/12/18 07:52:51;;;;;;;;;;;19.30;53.00;;;;;;7430860;19;3630;-60
2023/12/18 07:55:16;;;;;;;;;;;19.30;52.80;;;;;;7427468;19;4472;-60
2023/12/18 07:57:42;;;;;;;;;;;19.40;52.90;;;;;;7429386;19;1049;-60
2023/12/18 08:00:08;;;;;;;;;;;19.40;52.80;;;;;;7426149;19;3187;-60
2023/12/18 08:02:34;;;;;;;;;;;19.40;52.60;;;;;;7431687;19;2927;-60
2023/12/18 08:05:00;;;;;;;;;;;19.40;52.60;;;;;;7430354;19;1588;-61
2023/12/18 08:07:25;;;;;;;;;;;19.40;52.50;;;;;;7428104;19;3372;-60
2023/12/18 08:09:50;;;;;;;;;;;19.40;52.50;;;;;;7431802;19;3263;-60
2023/12/18 08:12:16;;;;;;;;;;;19.50;52.50;;;;;;7429108;19;788;-60
2023/12/18 08:14:42;;;;;;;;;;;19.40;52.40;;;;;;7426813;19;3485;-60
2023/12/18 08:17:07;;;;;;;;;;;19.50;52.50;;;;;;7432951;19;2728;-60
2023/12/18 08:19:33;;;;;;;;;;;19.40;52.40;;;;;;7428665;19;1511;-60
2023/12/18 08:21:58;;;;;;;;;;;19.50;52.40;;;;;;7429294;19;4082;-60
2023/12/18 08:24:24;;;;;;;;;;;19.50;52.40;;;;;;7431764;19;3043;-60
2023/12/18 08:26:49;;;;;;;;;;;19.50;52.50;;;;;;7429825;19;2907;-60
2023/12/18 08:29:14;;;;;;;;;;;19.50;52.50;;;;;;7427642;19;3919;-60
2023/12/18 08:31:42;;;;;;;;;;;19.50;52.50;;;;;;7432239;19;2523;-60
2023/12/18 08:34:08;;;;;;;;;;;19.50;52.60;;;;;;7430312;19;1838;-60
2023/12/18 08:36:34;;;;;;;;;;;19.40;52.60;;;;;;7430129;19;2920;-60
2023/12/18 08:39:00;;;;;;;;;;;19.50;52.60;;;;;;7432669;19;3293;-61
2023/12/18 08:41:25;;;;;;;;;;;19.40;52.50;;;;;;7430461;19;1416;-60
2023/12/18 08:43:51;;;;;;;;;;;19.40;52.50;;;;;;7427708;19;4534;-60
2023/12/18 08:46:16;;;;;;;;;;;19.50;52.60;;;;;;7414419;19;3126;-60
2023/12/18 08:48:42;;;;;;;;;;;19.50;52.60;;;;;;7399740;19;807;-60
2023/12/18 08:51:07;;;;;;;;;;;19.50;52.50;;;;;;7398521;19;4222;-60
2023/12/18 08:53:33;;;;;;;;;;;19.50;52.40;;;;;;7403504;19;3475;-60
2023/12/18 08:55:59;;;;;;;;;;;19.50;52.40;;;;;;7401223;19;1648;-61
2023/12/18 08:58:25;;;;;;;;;;;19.60;52.50;;;;;;7388902;19;4528;-60
2023/12/18 09:00:52;;;;;;;;;;;19.50;52.50;;;;;;7393563;19;3304;-60
2023/12/18 09:03:19;;;;;;;;;;;19.50;52.60;;;;;;7395453;19;3418;-60
2023/12/18 09:05:44;;;;;;;;;;;19.50;52.90;;;;;;7394631;19;3518;-61
2023/12/18 09:08:13;;;;;;;;;;;19.50;52.80;;;;;;7399889;19;3363;-60
2023/12/18 09:10:39;;;;;;;;;;;19.60;52.70;;;;;;7398631;19;2934;-62
2023/12/18 09:13:05;;;;;;;;;;;19.60;52.50;;;;;;7399482;19;3017;-60
2023/12/18 09:15:30;;;;;;;;;;;19.70;52.30;;;;;;7399388;19;1856;-60
2023/12/18 09:17:56;;;;;;;;;;;19.80;52.20;;;;;;7399603;19;3058;-60
2023/12/18 09:20:21;;;;;;;;;;;19.80;52.00;;;;;;7397031;19;4431;-60
2023/12/18 09:22:48;;;;;;;;;;;19.90;52.10;;;;;;7398287;19;2860;-61
2023/12/18 09:25:14;;;;;;;;;;;19.80;52.10;;;;;;7395447;19;4015;-60
2023/12/18 09:27:39;;;;;;;;;;;19.90;52.20;;;;;;7398745;19;4515;-61
2023/12/18 09:30:05;;;;;;;;;;;19.90;52.20;;;;;;7399028;19;3697;-61
2023/12/18 09:32:30;;;;;;;;;;;19.80;52.10;;;;;;7393062;19;3542;-61
2023/12/18 09:34:56;;;;;;;;;;;19.80;52.00;;;;;;7393298;19;3517;-61
2023/12/18 09:37:21;;;;;;;;;;;19.90;52.20;;;;;;7393993;19;3470;-61
2023/12/18 09:39:47;;;;;;;;;;;19.90;52.20;;;;;;7387640;19;4956;-60
2023/12/18 09:42:12;;;;;;;;;;;19.90;52.20;;;;;;7397490;19;3380;-61
2023/12/18 09:44:38;;;;;;;;;;;20.20;52.30;;;;;;7395886;19;1918;-60
2023/12/18 09:47:03;;;;;;;;;;;21.00;51.10;;;;;;7397162;19;3107;-62
2023/12/18 09:49:29;;;;;;;;;;;21.90;49.50;;;;;;7390356;19;3198;-61
2023/12/18 09:51:55;;;;;;;;;;;22.40;49.00;;;;;;7387670;19;4595;-61
2023/12/18 09:54:21;;;;;;;;;;;22.70;47.40;;;;;;7389360;19;3846;-61
2023/12/18 09:56:48;;;;;;;;;;;23.10;47.00;;;;;;7395664;19;2852;-60
2023/12/18 09:59:14;;;;;;;;;;;23.20;46.50;;;;;;7394977;19;3486;-60
2023/12/18 10:01:39;;;;;;;;;;;23.40;46.40;;;;;;7397642;19;1720;-60
2023/12/18 10:04:06;;;;;;;;;;;23.40;46.10;;;;;;7393870;19;4581;-60
2023/12/18 10:06:31;;;;;;;;;;;23.50;46.00;;;;;;7397890;19;1659;-61
2023/12/18 10:08:57;;;;;;;;;;;23.60;45.90;;;;;;7396941;19;3782;-60
2023/12/18 10:11:26;;;;;;;;;;;23.70;45.70;;;;;;7390900;19;3480;-62
2023/12/18 10:13:52;;;;;;;;;;;23.70;45.60;;;;;;7391282;19;3394;-62
2023/12/18 10:16:18;;;;;;;;;;;23.70;45.50;;;;;;7398993;19;1588;-61
2023/12/18 10:18:43;;;;;;;;;;;23.70;45.40;;;;;;7397865;19;2873;-62
2023/12/18 10:21:10;;;;;;;;;;;23.80;45.50;;;;;;7395001;19;3130;-61
2023/12/18 10:23:36;;;;;;;;;;;23.80;45.40;;;;;;7393755;19;3215;-61
2023/12/18 10:26:02;;;;;;;;;;;23.90;45.40;;;;;;7393737;19;3795;-62
2023/12/18 10:28:27;;;;;;;;;;;23.90;45.20;;;;;;7395265;19;3506;-60
2023/12/18 10:30:53;;;;;;;;;;;23.90;45.80;;;;;;7393374;19;4681;-61
2023/12/18 10:33:18;;;;;;;;;;;24.00;45.10;;;;;;7393967;19;4389;-61
2023/12/18 10:35:44;;;;;;;;;;;23.90;45.20;;;;;;7396650;19;2426;-61
2023/12/18 10:38:10;;;;;;;;;;;23.90;45.20;;;;;;7391087;19;4619;-62
2023/12/18 10:40:36;;;;;;;;;;;24.00;45.10;;;;;;7388831;19;4654;-62
2023/12/18 10:43:05;;;;;;;;;;;23.90;45.10;;;;;;7397624;19;1596;-61
2023/12/18 10:45:30;;;;;;;;;;;24.00;45.00;;;;;;7396662;19;3026;-61
2023/12/18 10:47:56;;;;;;;;;;;24.10;44.90;;;;;;7391273;19;4376;-61
2023/12/18 10:50:21;;;;;;;;;;;24.10;44.80;;;;;;7393038;19;3570;-60
2023/12/18 10:52:46;;;;;;;;;;;24.10;44.80;;;;;;7395383;19;3132;-61
2023/12/18 10:55:12;;;;;;;;;;;24.20;44.80;;;;;;7389666;19;4546;-61
2023/12/18 10:57:37;;;;;;;;;;;24.10;44.70;;;;;;7392623;19;3582;-61
2023/12/18 11:00:03;;;;;;;;;;;24.20;44.70;;;;;;7392097;19;1679;-61
2023/12/18 11:02:29;;;;;;;;;;;24.20;44.60;;;;;;7392307;19;3572;-61
2023/12/18 11:04:54;;;;;;;;;;;24.20;44.50;;;;;;7395573;19;2802;-61
2023/12/18 11:07:20;;;;;;;;;;;24.30;44.60;;;;;;7390465;19;3604;-62
2023/12/18 11:09:46;;;;;;;;;;;24.30;44.50;;;;;;7392076;19;3243;-61
2023/12/18 11:12:11;;;;;;;;;;;24.30;44.50;;;;;;7396949;19;1691;-61
2023/12/18 11:14:43;;;;;;;;;;;24.20;44.40;;;;;;7392736;19;3301;-60
2023/12/18 11:17:08;;;;;;;;;;;24.30;44.50;;;;;;7394852;19;3023;-60
2023/12/18 11:19:37;;;;;;;;;;;24.30;44.40;;;;;;7396258;19;1320;-60
2023/12/18 11:22:04;;;;;;;;;;;24.30;44.40;;;;;;7387286;19;4205;-61
2023/12/18 11:24:36;;;;;;;;;;;24.30;44.40;;;;;;7390327;19;4513;-61
2023/12/18 11:27:02;;;;;;;;;;;24.20;44.70;;;;;;7393402;19;3651;-61
2023/12/18 11:29:31;;;;;;;;;;;24.30;44.60;;;;;;7387980;19;2992;-60
2023/12/18 11:31:57;;;;;;;;;;;24.20;44.60;;;;;;7390255;19;3299;-62
2023/12/18 11:34:23;;;;;;;;;;;24.30;44.50;;;;;;7390224;19;1837;-61
2023/12/18 11:36:49;;;;;;;;;;;24.30;44.60;;;;;;7388268;19;3239;-61
2023/12/18 11:39:15;;;;;;;;;;;24.40;44.60;;;;;;7389581;19;2954;-63
2023/12/18 11:41:47;;;;;;;;;;;24.40;44.60;;;;;;7391528;19;3010;-62
2023/12/18 11:44:13;;;;;;;;;;;24.50;44.60;;;;;;7389057;19;3884;-62
2023/12/18 11:46:39;;;;;;;;;;;24.40;45.30;;;;;;7396220;19;1592;-61
2023/12/18 11:49:05;;;;;;;;;;;24.50;44.60;;;;;;7392716;19;3178;-61
2023/12/18 11:51:30;;;;;;;;;;;24.50;44.50;;;;;;7392052;19;3138;-61
2023/12/18 11:53:59;;;;;;;;;;;24.50;44.50;;;;;;7392878;19;3853;-62
2023/12/18 11:56:26;;;;;;;;;;;24.50;44.60;;;;;;7394352;19;1677;-62
2023/12/18 11:58:52;;;;;;;;;;;24.50;44.60;;;;;;7388668;19;3528;-62
2023/12/18 12:01:17;;;;;;;;;;;24.50;44.50;;;;;;7394447;19;1908;-62
2023/12/18 12:03:42;;;;;;;;;;;24.50;44.50;;;;;;7391464;19;1648;-61
2023/12/18 12:06:08;;;;;;;;;;;24.50;44.50;;;;;;7392031;19;2832;-61
2023/12/18 12:08:41;;;;;;;;;;;24.50;44.60;;;;;;7395546;19;1609;-61
2023/12/18 12:11:06;;;;;;;;;;;24.50;44.70;;;;;;7391353;19;1584;-62
2023/12/18 12:13:32;;;;;;;;;;;24.50;44.50;;;;;;7395754;19;3627;-61
2023/12/18 12:16:00;;;;;;;;;;;24.50;44.60;;;;;;7394334;19;3795;-62
2023/12/18 12:18:26;;;;;;;;;;;24.60;44.60;;;;;;7394096;19;2989;-62
2023/12/18 12:20:52;;;;;;;;;;;24.50;44.60;;;;;;7396234;19;1519;-62
2023/12/18 12:23:17;;;;;;;;;;;24.50;44.80;;;;;;7399303;19;1938;-62
2023/12/18 12:25:43;;;;;;;;;;;24.60;44.60;;;;;;7402356;19;1223;-62
2023/12/18 12:28:08;;;;;;;;;;;24.60;44.60;;;;;;7402681;19;1664;-61
2023/12/18 12:30:34;;;;;;;;;;;24.60;44.50;;;;;;7396282;19;5277;-62
2023/12/18 12:33:01;;;;;;;;;;;24.60;44.50;;;;;;7398294;19;4016;-61
2023/12/18 12:35:26;;;;;;;;;;;24.60;44.40;;;;;;7398208;19;3915;-64
2023/12/18 12:37:52;;;;;;;;;;;24.60;44.50;;;;;;7401872;19;1573;-62
2023/12/18 12:40:17;;;;;;;;;;;24.60;44.50;;;;;;7396439;19;4163;-61
2023/12/18 12:42:43;;;;;;;;;;;24.60;44.50;;;;;;7399304;19;3558;-62
2023/12/18 12:45:09;;;;;;;;;;;24.70;44.50;;;;;;7398098;19;3150;-63
2023/12/18 12:47:34;;;;;;;;;;;24.60;44.40;;;;;;7399653;19;3308;-61
2023/12/18 12:50:04;;;;;;;;;;;24.60;44.40;;;;;;7401595;19;2109;-62
2023/12/18 12:52:30;;;;;;;;;;;24.60;44.40;;;;;;7397622;19;3482;-62
2023/12/18 12:54:55;;;;;;;;;;;24.70;44.50;;;;;;7389624;19;3352;-61
2023/12/18 12:57:21;;;;;;;;;;;24.60;44.50;;;;;;7386803;19;5003;-61
2023/12/18 12:59:53;;;;;;;;;;;24.70;44.50;;;;;;7382070;19;6824;-60
2023/12/18 13:02:18;;;;;;;;;;;24.60;44.80;;;;;;7393650;19;4244;-62
2023/12/18 13:04:44;;;;;;;;;;;24.60;44.80;;;;;;7397640;19;3101;-62
2023/12/18 13:07:10;;;;;;;;;;;24.60;44.80;;;;;;7398567;19;2708;-62
2023/12/18 13:09:35;;;;;;;;;;;24.70;44.90;;;;;;7393637;19;4255;-63
2023/12/18 13:12:04;;;;;;;;;;;24.70;44.90;;;;;;7398767;19;4009;-63
2023/12/18 13:14:32;;;;;;;;;;;24.70;44.80;;;;;;7395942;19;4214;-63
2023/12/18 13:16:57;;;;;;;;;;;24.70;45.00;;;;;;7396000;19;2810;-63
2023/12/18 13:19:23;;;;;;;;;;;24.60;44.90;;;;;;7395395;19;3254;-64
2023/12/18 13:21:48;;;;;;;;;;;24.60;45.00;;;;;;7399878;19;1635;-62
2023/12/18 13:24:14;;;;;;;;;;;24.60;45.00;;;;;;7395284;19;4143;-63
2023/12/18 13:26:39;;;;;;;;;;;24.50;44.90;;;;;;7400839;19;1547;-62
2023/12/18 13:29:05;;;;;;;;;;;24.60;45.00;;;;;;7396442;19;4298;-62
2023/12/18 13:31:33;;;;;;;;;;;24.60;45.10;;;;;;7395505;19;3640;-63
2023/12/18 13:33:59;;;;;;;;;;;24.60;45.00;;;;;;7399617;19;1845;-63
2023/12/18 13:36:25;;;;;;;;;;;24.60;45.00;;;;;;7399420;19;1797;-63
2023/12/18 13:38:50;;;;;;;;;;;24.70;45.00;;;;;;7398086;19;1583;-62
2023/12/18 13:41:15;;;;;;;;;;;24.70;44.90;;;;;;7398425;19;1635;-63
2023/12/18 13:43:41;;;;;;;;;;;24.70;45.00;;;;;;7393480;19;2960;-63
2023/12/18 13:46:07;;;;;;;;;;;24.60;44.90;;;;;;7396664;19;2754;-62
2023/12/18 13:48:33;;;;;;;;;;;24.60;45.00;;;;;;7397343;19;2307;-62
2023/12/18 13:50:58;;;;;;;;;;;24.70;45.00;;;;;;7395994;19;4445;-63
2023/12/18 13:53:24;;;;;;;;;;;24.70;45.00;;;;;;7392588;19;3558;-62
2023/12/18 13:55:49;;;;;;;;;;;24.70;45.00;;;;;;7395653;19;2465;-63
2023/12/18 13:58:16;;;;;;;;;;;24.70;45.00;;;;;;7397191;19;2286;-63
2023/12/18 14:00:42;;;;;;;;;;;24.70;45.00;;;;;;7393125;19;1850;-63
2023/12/18 14:03:08;;;;;;;;;;;24.70;45.10;;;;;;7397703;19;2288;-63
2023/12/18 14:05:33;;;;;;;;;;;24.70;45.00;;;;;;7395123;19;1760;-62
2023/12/18 14:07:59;;;;;;;;;;;24.70;44.90;;;;;;7395021;19;2101;-62
2023/12/18 14:10:24;;;;;;;;;;;24.70;44.90;;;;;;7394285;19;3169;-63
2023/12/18 14:12:49;;;;;;;;;;;24.80;44.90;;;;;;7395325;19;1992;-63
2023/12/18 14:15:15;;;;;;;;;;;24.70;44.80;;;;;;7394569;19;1850;-62
2023/12/18 14:17:41;;;;;;;;;;;24.70;44.80;;;;;;7395851;19;2197;-62
2023/12/18 14:20:07;;;;;;;;;;;24.70;44.90;;;;;;7397314;19;1766;-63
2023/12/18 14:22:32;;;;;;;;;;;24.70;44.90;;;;;;7397170;19;1687;-63